createdAt,value
2023-03-10T00:01:59.848Z,85
2023-03-10T00:17:09.667Z,85
2023-03-10T00:32:19.231Z,85.1
2023-03-10T00:47:28.338Z,85.1
2023-03-10T01:02:37.849Z,85.1
2023-03-10T01:17:47.089Z,85.1
2023-03-10T01:32:56.475Z,85.1
2023-03-10T01:48:05.566Z,85.1
2023-03-10T02:03:15.627Z,85.1
2023-03-10T02:18:25.321Z,85.1
2023-03-10T02:33:34.794Z,85.1
2023-03-10T02:48:44.734Z,84.6
2023-03-10T03:03:53.732Z,84.4
2023-03-10T03:19:02.920Z,84.4
2023-03-10T03:34:12.451Z,84.8
2023-03-10T03:49:21.861Z,85.6
2023-03-10T04:04:31.695Z,85.4
2023-03-10T04:19:41.243Z,84.7
2023-03-10T04:34:50.775Z,84.6
2023-03-10T04:50:00.401Z,84.5
2023-03-10T05:05:09.978Z,84.6
2023-03-10T05:20:19.527Z,85.5
2023-03-10T05:35:29.328Z,85.2
2023-03-10T05:50:39.993Z,85.2
2023-03-10T06:05:49.616Z,85.2
2023-03-10T06:20:59.591Z,85.2
2023-03-10T06:36:10.288Z,85.2
2023-03-10T06:51:19.881Z,85.3
2023-03-10T07:06:29.715Z,85.2
2023-03-10T07:21:40.223Z,85.1
2023-03-10T07:36:50.268Z,85
2023-03-10T07:51:59.979Z,85
2023-03-10T08:07:09.984Z,85
2023-03-10T08:22:23.125Z,85
2023-03-10T08:37:32.952Z,84.9
2023-03-10T08:52:43.071Z,84.8
2023-03-10T09:07:52.826Z,84.8
2023-03-10T09:23:02.550Z,84.8
2023-03-10T09:38:12.459Z,84.6
2023-03-10T09:53:22.092Z,84.7
2023-03-10T10:08:31.632Z,84.7
2023-03-10T10:23:41.131Z,84.8
2023-03-10T10:38:50.810Z,84.8
2023-03-10T10:54:00.601Z,84.8
2023-03-10T11:09:12.925Z,85.9
2023-03-10T11:24:26.397Z,84.8
2023-03-10T11:39:36.871Z,84.8
2023-03-10T11:54:46.566Z,84.9
2023-03-10T12:09:55.993Z,85
2023-03-10T12:25:05.850Z,85
2023-03-10T12:40:15.846Z,85
2023-03-10T12:55:25.802Z,85.1
2023-03-10T13:10:35.091Z,85.2
2023-03-10T13:25:44.980Z,85.4
2023-03-10T13:40:54.965Z,85.5
2023-03-10T13:56:04.722Z,85.6
2023-03-10T14:11:14.555Z,85.5
2023-03-10T14:26:24.259Z,85.5
2023-03-10T14:41:33.678Z,85.5
2023-03-10T14:56:43.245Z,85.6
2023-03-10T15:11:52.816Z,85.6
2023-03-10T15:27:02.618Z,85.5
2023-03-10T15:42:12.716Z,85.5
2023-03-10T15:57:22.014Z,85.7
2023-03-10T16:12:31.430Z,85.9
2023-03-10T16:27:41.083Z,85.6
2023-03-10T16:42:50.473Z,86.2
2023-03-10T16:57:59.813Z,86.3
2023-03-10T17:13:09.406Z,86.3
2023-03-10T17:28:19.148Z,86.5
2023-03-10T17:43:35.157Z,86.8
2023-03-10T17:58:44.467Z,87
2023-03-10T18:13:54.163Z,87
2023-03-10T18:29:04.017Z,87
2023-03-10T18:44:13.235Z,87.2
2023-03-10T18:59:22.543Z,86.6
2023-03-10T19:14:31.674Z,86.2
2023-03-10T19:29:41.076Z,86.2
2023-03-10T19:44:50.392Z,86.1
2023-03-10T19:59:59.706Z,86.7
2023-03-10T20:15:09.325Z,87.1
2023-03-10T20:30:18.637Z,87.1
2023-03-10T20:45:28.030Z,87.1
2023-03-10T21:00:41.409Z,87
2023-03-10T21:15:50.294Z,87.3
2023-03-10T21:31:00.585Z,87.1
2023-03-10T21:46:10.437Z,87.2
2023-03-10T22:01:19.928Z,87.2
2023-03-10T22:16:29.387Z,87.2
2023-03-10T22:31:40.856Z,87.2
2023-03-10T22:46:51.658Z,87.3
2023-03-10T23:02:01.078Z,87.2
2023-03-10T23:17:10.601Z,87.2
2023-03-10T23:32:20.105Z,87.1
2023-03-10T23:47:30.196Z,87.1
